sensor_id;sensor_type;location;lat;lon;timestamp;temperature;humidity
25825;DHT22;13658;44.534;18.694;2024-01-06T00:01:11;10.70;99.90
25825;DHT22;13658;44.534;18.694;2024-01-06T00:03:38;10.70;99.90
25825;DHT22;13658;44.534;18.694;2024-01-06T00:06:04;10.70;99.90
25825;DHT22;13658;44.534;18.694;2024-01-06T00:08:30;10.70;99.90
25825;DHT22;13658;44.534;18.694;2024-01-06T00:10:56;10.60;99.90
25825;DHT22;13658;44.534;18.694;2024-01-06T00:13:22;10.60;99.90
25825;DHT22;13658;44.534;18.694;2024-01-06T00:15:48;10.70;99.90
25825;DHT22;13658;44.534;18.694;2024-01-06T00:18:14;10.60;99.90
25825;DHT22;13658;44.534;18.694;2024-01-06T00:20:39;10.70;99.90
25825;DHT22;13658;44.534;18.694;2024-01-06T00:23:05;10.50;99.90
25825;DHT22;13658;44.534;18.694;2024-01-06T00:25:31;10.50;99.90
25825;DHT22;13658;44.534;18.694;2024-01-06T00:27:57;10.60;99.90
25825;DHT22;13658;44.534;18.694;2024-01-06T00:30:23;10.60;99.90
25825;DHT22;13658;44.534;18.694;2024-01-06T00:32:49;10.60;99.90
25825;DHT22;13658;44.534;18.694;2024-01-06T00:35:15;10.70;99.90
25825;DHT22;13658;44.534;18.694;2024-01-06T00:37:41;10.60;99.90
25825;DHT22;13658;44.534;18.694;2024-01-06T00:40:07;10.60;99.90
25825;DHT22;13658;44.534;18.694;2024-01-06T00:42:33;10.60;99.90
25825;DHT22;13658;44.534;18.694;2024-01-06T00:44:59;10.50;99.90
25825;DHT22;13658;44.534;18.694;2024-01-06T00:47:25;10.30;99.90
25825;DHT22;13658;44.534;18.694;2024-01-06T00:49:51;10.20;99.90
25825;DHT22;13658;44.534;18.694;2024-01-06T00:52:17;10.10;99.90
25825;DHT22;13658;44.534;18.694;2024-01-06T00:54:43;10.10;99.90
25825;DHT22;13658;44.534;18.694;2024-01-06T00:57:09;10.00;99.90
25825;DHT22;13658;44.534;18.694;2024-01-06T00:59:34;9.90;99.90
25825;DHT22;13658;44.534;18.694;2024-01-06T01:02:00;9.90;99.90
25825;DHT22;13658;44.534;18.694;2024-01-06T01:04:26;10.00;99.90
25825;DHT22;13658;44.534;18.694;2024-01-06T01:06:52;10.00;99.90
25825;DHT22;13658;44.534;18.694;2024-01-06T01:09:18;9.90;99.90
25825;DHT22;13658;44.534;18.694;2024-01-06T01:11:44;9.80;99.90
25825;DHT22;13658;44.534;18.694;2024-01-06T01:14:10;9.70;99.90
25825;DHT22;13658;44.534;18.694;2024-01-06T01:16:36;9.70;99.90
25825;DHT22;13658;44.534;18.694;2024-01-06T01:19:02;9.60;99.90
25825;DHT22;13658;44.534;18.694;2024-01-06T01:21:28;9.60;99.90
25825;DHT22;13658;44.534;18.694;2024-01-06T01:23:54;9.60;99.90
25825;DHT22;13658;44.534;18.694;2024-01-06T01:26:20;9.50;99.90
25825;DHT22;13658;44.534;18.694;2024-01-06T01:28:46;9.40;99.90
25825;DHT22;13658;44.534;18.694;2024-01-06T01:31:12;9.20;99.90
25825;DHT22;13658;44.534;18.694;2024-01-06T01:33:39;9.20;99.90
25825;DHT22;13658;44.534;18.694;2024-01-06T01:36:05;9.10;99.90
25825;DHT22;13658;44.534;18.694;2024-01-06T01:38:31;9.10;99.90
25825;DHT22;13658;44.534;18.694;2024-01-06T01:40:57;9.00;99.90
25825;DHT22;13658;44.534;18.694;2024-01-06T01:43:24;9.10;99.90
25825;DHT22;13658;44.534;18.694;2024-01-06T01:45:53;9.00;99.90
25825;DHT22;13658;44.534;18.694;2024-01-06T01:48:20;8.80;99.90
25825;DHT22;13658;44.534;18.694;2024-01-06T01:50:47;8.90;99.90
25825;DHT22;13658;44.534;18.694;2024-01-06T01:53:13;8.90;99.90
25825;DHT22;13658;44.534;18.694;2024-01-06T01:55:40;8.80;99.90
25825;DHT22;13658;44.534;18.694;2024-01-06T01:58:08;8.80;99.90
25825;DHT22;13658;44.534;18.694;2024-01-06T02:00:34;8.80;99.90
25825;DHT22;13658;44.534;18.694;2024-01-06T02:03:01;8.80;99.90
25825;DHT22;13658;44.534;18.694;2024-01-06T02:05:30;8.80;99.90
25825;DHT22;13658;44.534;18.694;2024-01-06T02:07:56;8.80;99.90
25825;DHT22;13658;44.534;18.694;2024-01-06T02:10:22;8.60;99.90
25825;DHT22;13658;44.534;18.694;2024-01-06T02:12:49;8.60;99.90
25825;DHT22;13658;44.534;18.694;2024-01-06T02:15:18;8.60;99.90
25825;DHT22;13658;44.534;18.694;2024-01-06T02:17:44;8.60;99.90
25825;DHT22;13658;44.534;18.694;2024-01-06T02:20:11;8.60;99.90
25825;DHT22;13658;44.534;18.694;2024-01-06T02:22:39;8.60;99.90
25825;DHT22;13658;44.534;18.694;2024-01-06T02:25:07;8.50;99.90
25825;DHT22;13658;44.534;18.694;2024-01-06T02:27:40;8.40;99.90
25825;DHT22;13658;44.534;18.694;2024-01-06T02:30:07;8.40;99.90
25825;DHT22;13658;44.534;18.694;2024-01-06T02:32:33;8.40;99.90
25825;DHT22;13658;44.534;18.694;2024-01-06T02:34:59;8.40;99.90
25825;DHT22;13658;44.534;18.694;2024-01-06T02:37:25;8.20;99.90
25825;DHT22;13658;44.534;18.694;2024-01-06T02:39:52;8.20;99.90
25825;DHT22;13658;44.534;18.694;2024-01-06T02:42:18;8.20;99.90
25825;DHT22;13658;44.534;18.694;2024-01-06T02:44:45;8.20;99.90
25825;DHT22;13658;44.534;18.694;2024-01-06T02:47:11;8.30;99.90
25825;DHT22;13658;44.534;18.694;2024-01-06T02:49:37;8.40;99.90
25825;DHT22;13658;44.534;18.694;2024-01-06T02:52:03;8.50;99.90
25825;DHT22;13658;44.534;18.694;2024-01-06T02:54:30;8.60;99.90
25825;DHT22;13658;44.534;18.694;2024-01-06T02:56:56;8.80;99.90
25825;DHT22;13658;44.534;18.694;2024-01-06T02:59:22;9.00;99.90
25825;DHT22;13658;44.534;18.694;2024-01-06T03:01:48;8.80;99.90
25825;DHT22;13658;44.534;18.694;2024-01-06T03:04:14;8.70;99.90
25825;DHT22;13658;44.534;18.694;2024-01-06T03:06:39;8.90;99.90
25825;DHT22;13658;44.534;18.694;2024-01-06T03:09:05;9.00;99.90
25825;DHT22;13658;44.534;18.694;2024-01-06T03:11:31;8.90;99.90
25825;DHT22;13658;44.534;18.694;2024-01-06T03:13:57;8.80;99.90
25825;DHT22;13658;44.534;18.694;2024-01-06T03:16:23;8.80;99.90
25825;DHT22;13658;44.534;18.694;2024-01-06T03:18:49;8.80;99.90
25825;DHT22;13658;44.534;18.694;2024-01-06T03:21:19;8.80;99.90
25825;DHT22;13658;44.534;18.694;2024-01-06T03:23:46;8.80;99.90
25825;DHT22;13658;44.534;18.694;2024-01-06T03:26:12;8.80;99.90
25825;DHT22;13658;44.534;18.694;2024-01-06T03:28:38;8.80;99.90
25825;DHT22;13658;44.534;18.694;2024-01-06T03:31:03;8.80;99.90
25825;DHT22;13658;44.534;18.694;2024-01-06T03:33:29;8.90;99.90
25825;DHT22;13658;44.534;18.694;2024-01-06T03:35:55;8.80;99.90
25825;DHT22;13658;44.534;18.694;2024-01-06T03:38:21;8.60;99.90
25825;DHT22;13658;44.534;18.694;2024-01-06T03:40:47;8.70;99.90
25825;DHT22;13658;44.534;18.694;2024-01-06T03:43:13;8.50;99.90
25825;DHT22;13658;44.534;18.694;2024-01-06T03:45:39;8.50;99.90
25825;DHT22;13658;44.534;18.694;2024-01-06T03:48:05;8.50;99.90
25825;DHT22;13658;44.534;18.694;2024-01-06T03:50:31;8.60;99.90
25825;DHT22;13658;44.534;18.694;2024-01-06T03:52:57;8.50;99.90
25825;DHT22;13658;44.534;18.694;2024-01-06T03:55:23;8.60;99.90
25825;DHT22;13658;44.534;18.694;2024-01-06T03:57:49;8.50;99.90
25825;DHT22;13658;44.534;18.694;2024-01-06T04:00:15;8.50;99.90
25825;DHT22;13658;44.534;18.694;2024-01-06T04:02:41;8.50;99.90
25825;DHT22;13658;44.534;18.694;2024-01-06T04:05:07;8.40;99.90
25825;DHT22;13658;44.534;18.694;2024-01-06T04:07:33;8.50;99.90
25825;DHT22;13658;44.534;18.694;2024-01-06T04:09:59;8.50;99.90
25825;DHT22;13658;44.534;18.694;2024-01-06T04:12:25;8.50;99.90
25825;DHT22;13658;44.534;18.694;2024-01-06T04:14:51;8.50;99.90
25825;DHT22;13658;44.534;18.694;2024-01-06T04:17:17;8.60;99.90
25825;DHT22;13658;44.534;18.694;2024-01-06T04:19:43;8.60;99.90
25825;DHT22;13658;44.534;18.694;2024-01-06T04:22:09;8.60;99.90
25825;DHT22;13658;44.534;18.694;2024-01-06T04:24:35;8.60;99.90
25825;DHT22;13658;44.534;18.694;2024-01-06T04:27:04;8.60;99.90
25825;DHT22;13658;44.534;18.694;2024-01-06T04:29:30;8.60;99.90
25825;DHT22;13658;44.534;18.694;2024-01-06T04:32:18;8.70;99.90
25825;DHT22;13658;44.534;18.694;2024-01-06T04:34:44;8.60;99.90
25825;DHT22;13658;44.534;18.694;2024-01-06T04:37:10;8.70;99.90
25825;DHT22;13658;44.534;18.694;2024-01-06T04:39:36;8.70;99.90
25825;DHT22;13658;44.534;18.694;2024-01-06T04:42:02;8.70;99.90
25825;DHT22;13658;44.534;18.694;2024-01-06T04:44:28;8.60;99.90
25825;DHT22;13658;44.534;18.694;2024-01-06T04:46:54;8.60;99.90
25825;DHT22;13658;44.534;18.694;2024-01-06T04:49:20;8.50;99.90
25825;DHT22;13658;44.534;18.694;2024-01-06T04:51:47;8.50;99.90
25825;DHT22;13658;44.534;18.694;2024-01-06T04:54:13;8.50;99.90
25825;DHT22;13658;44.534;18.694;2024-01-06T04:56:39;8.60;99.90
25825;DHT22;13658;44.534;18.694;2024-01-06T04:59:05;8.60;99.90
25825;DHT22;13658;44.534;18.694;2024-01-06T05:01:32;8.60;99.90
25825;DHT22;13658;44.534;18.694;2024-01-06T05:03:58;8.50;99.90
25825;DHT22;13658;44.534;18.694;2024-01-06T05:06:25;8.50;99.90
25825;DHT22;13658;44.534;18.694;2024-01-06T05:08:51;8.50;99.90
25825;DHT22;13658;44.534;18.694;2024-01-06T05:11:17;8.60;99.90
25825;DHT22;13658;44.534;18.694;2024-01-06T05:13:43;8.50;99.90
25825;DHT22;13658;44.534;18.694;2024-01-06T05:16:09;8.50;99.90
25825;DHT22;13658;44.534;18.694;2024-01-06T05:18:35;8.50;99.90
25825;DHT22;13658;44.534;18.694;2024-01-06T05:21:01;8.60;99.90
25825;DHT22;13658;44.534;18.694;2024-01-06T05:23:27;8.60;99.90
25825;DHT22;13658;44.534;18.694;2024-01-06T05:25:53;8.70;99.90
25825;DHT22;13658;44.534;18.694;2024-01-06T05:28:19;8.70;99.90
25825;DHT22;13658;44.534;18.694;2024-01-06T05:30:45;8.70;99.90
25825;DHT22;13658;44.534;18.694;2024-01-06T05:33:12;8.80;99.90
25825;DHT22;13658;44.534;18.694;2024-01-06T05:35:41;8.80;99.90
25825;DHT22;13658;44.534;18.694;2024-01-06T05:38:07;8.70;99.90
25825;DHT22;13658;44.534;18.694;2024-01-06T05:40:33;8.70;99.90
25825;DHT22;13658;44.534;18.694;2024-01-06T05:42:59;8.80;99.90
25825;DHT22;13658;44.534;18.694;2024-01-06T05:45:25;8.80;99.90
25825;DHT22;13658;44.534;18.694;2024-01-06T05:47:51;8.80;99.90
25825;DHT22;13658;44.534;18.694;2024-01-06T05:50:17;8.80;99.90
25825;DHT22;13658;44.534;18.694;2024-01-06T05:52:43;8.80;99.90
25825;DHT22;13658;44.534;18.694;2024-01-06T05:55:09;8.80;99.90
25825;DHT22;13658;44.534;18.694;2024-01-06T05:57:35;8.80;99.90
25825;DHT22;13658;44.534;18.694;2024-01-06T06:00:01;8.80;99.90
25825;DHT22;13658;44.534;18.694;2024-01-06T06:02:27;8.80;99.90
25825;DHT22;13658;44.534;18.694;2024-01-06T06:04:53;8.80;99.90
25825;DHT22;13658;44.534;18.694;2024-01-06T06:07:19;8.70;99.90
25825;DHT22;13658;44.534;18.694;2024-01-06T06:09:46;8.70;99.90
25825;DHT22;13658;44.534;18.694;2024-01-06T06:12:15;8.70;99.90
25825;DHT22;13658;44.534;18.694;2024-01-06T06:14:41;8.70;99.90
25825;DHT22;13658;44.534;18.694;2024-01-06T06:17:07;8.70;99.90
25825;DHT22;13658;44.534;18.694;2024-01-06T06:19:33;8.70;99.90
25825;DHT22;13658;44.534;18.694;2024-01-06T06:21:59;8.70;99.90
25825;DHT22;13658;44.534;18.694;2024-01-06T06:24:26;8.80;99.90
25825;DHT22;13658;44.534;18.694;2024-01-06T06:26:51;8.80;99.90
25825;DHT22;13658;44.534;18.694;2024-01-06T06:29:17;8.80;99.90
25825;DHT22;13658;44.534;18.694;2024-01-06T06:31:43;8.70;99.90
25825;DHT22;13658;44.534;18.694;2024-01-06T06:34:10;8.80;99.90
25825;DHT22;13658;44.534;18.694;2024-01-06T06:36:36;8.90;99.90
25825;DHT22;13658;44.534;18.694;2024-01-06T06:39:03;9.10;99.90
25825;DHT22;13658;44.534;18.694;2024-01-06T06:41:30;9.20;99.90
25825;DHT22;13658;44.534;18.694;2024-01-06T06:43:57;9.20;99.90
25825;DHT22;13658;44.534;18.694;2024-01-06T06:46:23;9.10;99.90
25825;DHT22;13658;44.534;18.694;2024-01-06T06:48:50;9.20;99.90
25825;DHT22;13658;44.534;18.694;2024-01-06T06:51:16;9.20;99.90
25825;DHT22;13658;44.534;18.694;2024-01-06T06:53:42;9.30;99.90
25825;DHT22;13658;44.534;18.694;2024-01-06T06:56:08;9.30;99.90
25825;DHT22;13658;44.534;18.694;2024-01-06T06:58:34;9.50;99.90
25825;DHT22;13658;44.534;18.694;2024-01-06T07:01:00;9.60;99.90
25825;DHT22;13658;44.534;18.694;2024-01-06T07:03:26;9.60;99.90
25825;DHT22;13658;44.534;18.694;2024-01-06T07:05:52;9.70;99.90
25825;DHT22;13658;44.534;18.694;2024-01-06T07:08:18;9.70;99.90
25825;DHT22;13658;44.534;18.694;2024-01-06T07:10:44;9.70;99.90
25825;DHT22;13658;44.534;18.694;2024-01-06T07:13:10;9.80;99.90
25825;DHT22;13658;44.534;18.694;2024-01-06T07:15:36;9.80;99.90
25825;DHT22;13658;44.534;18.694;2024-01-06T07:18:02;9.90;99.90
25825;DHT22;13658;44.534;18.694;2024-01-06T07:20:28;10.00;99.90
25825;DHT22;13658;44.534;18.694;2024-01-06T07:22:54;10.10;99.90
25825;DHT22;13658;44.534;18.694;2024-01-06T07:25:19;10.10;99.90
25825;DHT22;13658;44.534;18.694;2024-01-06T07:27:45;10.30;99.90
25825;DHT22;13658;44.534;18.694;2024-01-06T07:30:12;10.30;99.90
25825;DHT22;13658;44.534;18.694;2024-01-06T07:32:38;10.40;99.90
25825;DHT22;13658;44.534;18.694;2024-01-06T07:35:04;10.40;99.90
25825;DHT22;13658;44.534;18.694;2024-01-06T07:37:30;10.40;99.90
25825;DHT22;13658;44.534;18.694;2024-01-06T07:39:56;10.40;99.90
25825;DHT22;13658;44.534;18.694;2024-01-06T07:42:22;10.40;99.90
25825;DHT22;13658;44.534;18.694;2024-01-06T07:44:48;10.60;99.90
25825;DHT22;13658;44.534;18.694;2024-01-06T07:47:14;10.80;99.90
25825;DHT22;13658;44.534;18.694;2024-01-06T07:49:40;10.90;99.90
25825;DHT22;13658;44.534;18.694;2024-01-06T07:52:06;11.00;99.90
25825;DHT22;13658;44.534;18.694;2024-01-06T07:54:32;11.10;99.90
25825;DHT22;13658;44.534;18.694;2024-01-06T07:56:58;11.40;99.90
25825;DHT22;13658;44.534;18.694;2024-01-06T07:59:24;11.60;99.90
25825;DHT22;13658;44.534;18.694;2024-01-06T08:01:52;11.60;99.90
25825;DHT22;13658;44.534;18.694;2024-01-06T08:04:18;11.70;99.90
25825;DHT22;13658;44.534;18.694;2024-01-06T08:06:44;11.90;99.90
25825;DHT22;13658;44.534;18.694;2024-01-06T08:09:10;11.90;99.90
25825;DHT22;13658;44.534;18.694;2024-01-06T08:11:36;12.10;99.90
25825;DHT22;13658;44.534;18.694;2024-01-06T08:14:02;12.30;99.90
25825;DHT22;13658;44.534;18.694;2024-01-06T08:16:28;12.50;99.90
25825;DHT22;13658;44.534;18.694;2024-01-06T08:18:54;12.90;99.90
25825;DHT22;13658;44.534;18.694;2024-01-06T08:21:19;13.10;99.90
25825;DHT22;13658;44.534;18.694;2024-01-06T08:23:45;13.40;99.90
25825;DHT22;13658;44.534;18.694;2024-01-06T08:26:11;13.50;99.90
25825;DHT22;13658;44.534;18.694;2024-01-06T08:28:37;13.90;99.90
25825;DHT22;13658;44.534;18.694;2024-01-06T08:31:03;14.20;99.90
25825;DHT22;13658;44.534;18.694;2024-01-06T08:33:29;14.30;99.90
25825;DHT22;13658;44.534;18.694;2024-01-06T08:35:55;14.40;99.90
25825;DHT22;13658;44.534;18.694;2024-01-06T08:38:21;14.40;99.90
25825;DHT22;13658;44.534;18.694;2024-01-06T08:40:48;14.60;99.90
25825;DHT22;13658;44.534;18.694;2024-01-06T08:43:16;14.80;99.90
25825;DHT22;13658;44.534;18.694;2024-01-06T08:45:42;14.80;99.90
25825;DHT22;13658;44.534;18.694;2024-01-06T08:48:08;14.80;99.90
25825;DHT22;13658;44.534;18.694;2024-01-06T08:50:33;15.20;99.90
25825;DHT22;13658;44.534;18.694;2024-01-06T08:52:59;15.30;99.90
25825;DHT22;13658;44.534;18.694;2024-01-06T08:55:25;15.30;99.90
25825;DHT22;13658;44.534;18.694;2024-01-06T08:57:51;15.50;99.90
25825;DHT22;13658;44.534;18.694;2024-01-06T09:00:17;15.40;99.90
25825;DHT22;13658;44.534;18.694;2024-01-06T09:02:43;15.30;99.90
25825;DHT22;13658;44.534;18.694;2024-01-06T09:05:09;15.30;99.90
25825;DHT22;13658;44.534;18.694;2024-01-06T09:07:35;15.30;99.90
25825;DHT22;13658;44.534;18.694;2024-01-06T09:10:01;15.40;99.90
25825;DHT22;13658;44.534;18.694;2024-01-06T09:12:27;15.50;99.90
25825;DHT22;13658;44.534;18.694;2024-01-06T09:14:53;15.60;99.90
25825;DHT22;13658;44.534;18.694;2024-01-06T09:17:19;15.60;99.90
25825;DHT22;13658;44.534;18.694;2024-01-06T09:19:45;15.60;99.90
25825;DHT22;13658;44.534;18.694;2024-01-06T09:22:11;15.60;99.90
25825;DHT22;13658;44.534;18.694;2024-01-06T09:24:38;15.60;99.90
25825;DHT22;13658;44.534;18.694;2024-01-06T09:27:04;15.60;99.90
25825;DHT22;13658;44.534;18.694;2024-01-06T09:29:30;15.60;99.90
25825;DHT22;13658;44.534;18.694;2024-01-06T09:31:56;15.60;99.90
25825;DHT22;13658;44.534;18.694;2024-01-06T09:34:22;15.60;99.90
25825;DHT22;13658;44.534;18.694;2024-01-06T09:36:48;15.50;99.90
25825;DHT22;13658;44.534;18.694;2024-01-06T09:39:14;15.50;99.90
25825;DHT22;13658;44.534;18.694;2024-01-06T09:41:40;15.50;99.90
25825;DHT22;13658;44.534;18.694;2024-01-06T09:44:06;15.50;99.90
25825;DHT22;13658;44.534;18.694;2024-01-06T09:46:31;15.40;99.90
25825;DHT22;13658;44.534;18.694;2024-01-06T09:48:58;15.30;99.90
25825;DHT22;13658;44.534;18.694;2024-01-06T09:51:24;15.30;99.90
25825;DHT22;13658;44.534;18.694;2024-01-06T09:54:00;15.30;99.90
25825;DHT22;13658;44.534;18.694;2024-01-06T09:56:27;15.20;99.90
25825;DHT22;13658;44.534;18.694;2024-01-06T09:58:57;15.20;99.90
25825;DHT22;13658;44.534;18.694;2024-01-06T10:01:23;15.20;99.90
25825;DHT22;13658;44.534;18.694;2024-01-06T10:03:49;15.40;99.90
25825;DHT22;13658;44.534;18.694;2024-01-06T10:06:16;15.40;99.90
25825;DHT22;13658;44.534;18.694;2024-01-06T10:08:43;15.50;99.90
25825;DHT22;13658;44.534;18.694;2024-01-06T10:11:09;15.60;99.90
25825;DHT22;13658;44.534;18.694;2024-01-06T10:13:36;15.60;99.90
25825;DHT22;13658;44.534;18.694;2024-01-06T10:16:06;15.80;99.90
25825;DHT22;13658;44.534;18.694;2024-01-06T10:18:32;15.90;99.90
25825;DHT22;13658;44.534;18.694;2024-01-06T10:21:03;15.90;99.90
25825;DHT22;13658;44.534;18.694;2024-01-06T10:23:32;15.90;99.90
25825;DHT22;13658;44.534;18.694;2024-01-06T10:25:59;16.00;99.90
25825;DHT22;13658;44.534;18.694;2024-01-06T10:28:25;16.00;99.90
25825;DHT22;13658;44.534;18.694;2024-01-06T10:30:55;16.10;99.90
25825;DHT22;13658;44.534;18.694;2024-01-06T10:33:22;16.10;99.90
25825;DHT22;13658;44.534;18.694;2024-01-06T10:35:49;16.10;99.90
25825;DHT22;13658;44.534;18.694;2024-01-06T10:38:15;16.10;99.90
25825;DHT22;13658;44.534;18.694;2024-01-06T10:40:58;16.20;99.90
25825;DHT22;13658;44.534;18.694;2024-01-06T10:43:26;16.20;99.90
25825;DHT22;13658;44.534;18.694;2024-01-06T10:45:56;16.10;99.90
25825;DHT22;13658;44.534;18.694;2024-01-06T10:48:25;16.20;99.90
25825;DHT22;13658;44.534;18.694;2024-01-06T10:50:53;16.20;99.90
25825;DHT22;13658;44.534;18.694;2024-01-06T10:53:21;16.20;99.90
25825;DHT22;13658;44.534;18.694;2024-01-06T10:55:49;16.20;99.90
25825;DHT22;13658;44.534;18.694;2024-01-06T10:58:19;16.30;99.90
25825;DHT22;13658;44.534;18.694;2024-01-06T11:00:46;16.40;99.90
25825;DHT22;13658;44.534;18.694;2024-01-06T11:03:13;16.50;99.90
25825;DHT22;13658;44.534;18.694;2024-01-06T11:05:41;16.50;99.90
25825;DHT22;13658;44.534;18.694;2024-01-06T11:08:08;16.60;99.90
25825;DHT22;13658;44.534;18.694;2024-01-06T11:10:36;16.70;99.90
25825;DHT22;13658;44.534;18.694;2024-01-06T11:13:13;16.80;99.90
25825;DHT22;13658;44.534;18.694;2024-01-06T11:15:57;16.80;99.90
25825;DHT22;13658;44.534;18.694;2024-01-06T11:18:39;16.80;99.90
25825;DHT22;13658;44.534;18.694;2024-01-06T11:21:19;16.80;99.90
25825;DHT22;13658;44.534;18.694;2024-01-06T11:26:32;16.60;99.90
25825;DHT22;13658;44.534;18.694;2024-01-06T11:29:00;16.60;99.90
25825;DHT22;13658;44.534;18.694;2024-01-06T11:31:32;16.50;99.90
25825;DHT22;13658;44.534;18.694;2024-01-06T11:34:15;16.50;99.90
25825;DHT22;13658;44.534;18.694;2024-01-06T11:36:45;16.40;99.90
25825;DHT22;13658;44.534;18.694;2024-01-06T11:39:35;16.40;99.90
25825;DHT22;13658;44.534;18.694;2024-01-06T11:42:04;16.40;99.90
25825;DHT22;13658;44.534;18.694;2024-01-06T11:44:34;16.30;99.90
25825;DHT22;13658;44.534;18.694;2024-01-06T11:47:01;16.20;99.90
25825;DHT22;13658;44.534;18.694;2024-01-06T11:49:28;16.30;99.90
25825;DHT22;13658;44.534;18.694;2024-01-06T11:51:58;16.30;99.90
25825;DHT22;13658;44.534;18.694;2024-01-06T11:54:24;16.30;99.90
25825;DHT22;13658;44.534;18.694;2024-01-06T11:56:50;16.30;99.90
25825;DHT22;13658;44.534;18.694;2024-01-06T11:59:19;16.30;99.90
25825;DHT22;13658;44.534;18.694;2024-01-06T12:01:46;16.30;99.90
25825;DHT22;13658;44.534;18.694;2024-01-06T12:04:15;16.40;99.90
25825;DHT22;13658;44.534;18.694;2024-01-06T12:06:42;16.30;99.90
25825;DHT22;13658;44.534;18.694;2024-01-06T12:09:10;16.30;99.90
25825;DHT22;13658;44.534;18.694;2024-01-06T12:11:36;16.30;99.90
25825;DHT22;13658;44.534;18.694;2024-01-06T12:14:03;16.20;99.90
25825;DHT22;13658;44.534;18.694;2024-01-06T12:16:29;16.20;99.90
25825;DHT22;13658;44.534;18.694;2024-01-06T12:18:58;16.20;99.90
25825;DHT22;13658;44.534;18.694;2024-01-06T12:21:29;16.20;99.90
25825;DHT22;13658;44.534;18.694;2024-01-06T12:24:17;16.10;99.90
25825;DHT22;13658;44.534;18.694;2024-01-06T12:26:46;16.10;99.90
25825;DHT22;13658;44.534;18.694;2024-01-06T12:29:13;16.10;99.90
25825;DHT22;13658;44.534;18.694;2024-01-06T12:31:39;16.10;99.90
25825;DHT22;13658;44.534;18.694;2024-01-06T12:34:07;16.00;99.90
25825;DHT22;13658;44.534;18.694;2024-01-06T12:36:37;16.10;99.90
25825;DHT22;13658;44.534;18.694;2024-01-06T12:39:03;16.10;99.90
25825;DHT22;13658;44.534;18.694;2024-01-06T12:41:29;16.00;99.90
25825;DHT22;13658;44.534;18.694;2024-01-06T12:43:56;16.00;99.90
25825;DHT22;13658;44.534;18.694;2024-01-06T12:46:22;16.00;99.90
25825;DHT22;13658;44.534;18.694;2024-01-06T12:48:48;16.00;99.90
25825;DHT22;13658;44.534;18.694;2024-01-06T12:51:14;16.00;99.90
25825;DHT22;13658;44.534;18.694;2024-01-06T12:53:40;16.10;99.90
25825;DHT22;13658;44.534;18.694;2024-01-06T12:56:06;16.00;99.90
25825;DHT22;13658;44.534;18.694;2024-01-06T12:58:33;16.00;99.90
25825;DHT22;13658;44.534;18.694;2024-01-06T13:01:00;16.00;99.90
25825;DHT22;13658;44.534;18.694;2024-01-06T13:03:28;16.00;99.90
25825;DHT22;13658;44.534;18.694;2024-01-06T13:05:54;16.00;99.90
25825;DHT22;13658;44.534;18.694;2024-01-06T13:08:20;15.90;99.90
25825;DHT22;13658;44.534;18.694;2024-01-06T13:10:46;15.90;99.90
25825;DHT22;13658;44.534;18.694;2024-01-06T13:13:12;15.90;99.90
25825;DHT22;13658;44.534;18.694;2024-01-06T13:15:38;15.90;99.90
25825;DHT22;13658;44.534;18.694;2024-01-06T13:18:04;15.90;99.90
25825;DHT22;13658;44.534;18.694;2024-01-06T13:20:31;15.90;99.90
25825;DHT22;13658;44.534;18.694;2024-01-06T13:22:57;15.90;99.90
25825;DHT22;13658;44.534;18.694;2024-01-06T13:25:23;15.90;99.90
25825;DHT22;13658;44.534;18.694;2024-01-06T13:27:49;15.90;99.90
25825;DHT22;13658;44.534;18.694;2024-01-06T13:30:16;15.90;99.90
25825;DHT22;13658;44.534;18.694;2024-01-06T13:32:42;15.90;99.90
25825;DHT22;13658;44.534;18.694;2024-01-06T13:35:08;15.80;99.90
25825;DHT22;13658;44.534;18.694;2024-01-06T13:37:37;15.90;99.90
25825;DHT22;13658;44.534;18.694;2024-01-06T13:40:03;15.80;99.90
25825;DHT22;13658;44.534;18.694;2024-01-06T13:42:29;15.90;99.90
25825;DHT22;13658;44.534;18.694;2024-01-06T13:44:55;15.90;99.90
25825;DHT22;13658;44.534;18.694;2024-01-06T13:47:21;15.90;99.90
25825;DHT22;13658;44.534;18.694;2024-01-06T13:49:47;15.90;99.90
25825;DHT22;13658;44.534;18.694;2024-01-06T13:52:13;15.90;99.90
25825;DHT22;13658;44.534;18.694;2024-01-06T13:54:39;16.00;99.90
25825;DHT22;13658;44.534;18.694;2024-01-06T13:57:05;15.90;99.90
25825;DHT22;13658;44.534;18.694;2024-01-06T13:59:31;15.90;99.90
25825;DHT22;13658;44.534;18.694;2024-01-06T14:01:57;16.00;99.90
25825;DHT22;13658;44.534;18.694;2024-01-06T14:04:23;16.00;99.90
25825;DHT22;13658;44.534;18.694;2024-01-06T14:06:49;16.00;99.90
25825;DHT22;13658;44.534;18.694;2024-01-06T14:09:21;16.20;99.90
25825;DHT22;13658;44.534;18.694;2024-01-06T14:11:47;16.30;99.90
25825;DHT22;13658;44.534;18.694;2024-01-06T14:14:14;16.30;99.90
25825;DHT22;13658;44.534;18.694;2024-01-06T14:16:40;16.20;99.90
25825;DHT22;13658;44.534;18.694;2024-01-06T14:19:09;16.30;99.90
25825;DHT22;13658;44.534;18.694;2024-01-06T14:21:35;16.40;99.90
25825;DHT22;13658;44.534;18.694;2024-01-06T14:24:01;16.50;99.90
25825;DHT22;13658;44.534;18.694;2024-01-06T14:26:26;16.40;99.90
25825;DHT22;13658;44.534;18.694;2024-01-06T14:28:52;16.50;99.90
25825;DHT22;13658;44.534;18.694;2024-01-06T14:31:18;16.60;99.90
25825;DHT22;13658;44.534;18.694;2024-01-06T14:33:44;16.60;99.90
25825;DHT22;13658;44.534;18.694;2024-01-06T14:36:11;16.80;99.90
25825;DHT22;13658;44.534;18.694;2024-01-06T14:38:37;16.70;99.90
25825;DHT22;13658;44.534;18.694;2024-01-06T14:41:03;16.70;99.90
25825;DHT22;13658;44.534;18.694;2024-01-06T14:43:29;16.70;99.90
25825;DHT22;13658;44.534;18.694;2024-01-06T14:45:55;16.60;99.90
25825;DHT22;13658;44.534;18.694;2024-01-06T14:48:21;16.50;99.90
25825;DHT22;13658;44.534;18.694;2024-01-06T14:50:48;16.50;99.90
25825;DHT22;13658;44.534;18.694;2024-01-06T14:53:16;16.40;99.90
25825;DHT22;13658;44.534;18.694;2024-01-06T14:55:42;16.40;99.90
25825;DHT22;13658;44.534;18.694;2024-01-06T14:58:08;16.30;99.90
25825;DHT22;13658;44.534;18.694;2024-01-06T15:00:35;16.30;99.90
25825;DHT22;13658;44.534;18.694;2024-01-06T15:03:01;16.20;99.90
25825;DHT22;13658;44.534;18.694;2024-01-06T15:05:27;16.10;99.90
25825;DHT22;13658;44.534;18.694;2024-01-06T15:07:56;16.10;99.90
25825;DHT22;13658;44.534;18.694;2024-01-06T15:10:22;16.00;99.90
25825;DHT22;13658;44.534;18.694;2024-01-06T15:12:48;16.00;99.90
25825;DHT22;13658;44.534;18.694;2024-01-06T15:15:14;15.90;99.90
25825;DHT22;13658;44.534;18.694;2024-01-06T15:17:40;15.80;99.90
25825;DHT22;13658;44.534;18.694;2024-01-06T15:20:07;15.70;99.90
25825;DHT22;13658;44.534;18.694;2024-01-06T15:22:33;15.60;99.90